createdAt,value
2022-08-26T00:00:11.717Z,12.77
2022-08-26T00:02:39.885Z,16.20
2022-08-26T00:05:07.478Z,14.32
2022-08-26T00:07:35.134Z,18.80
2022-08-26T00:10:06.303Z,15.88
2022-08-26T00:12:37.708Z,14.02
2022-08-26T00:15:09.558Z,16.45
2022-08-26T00:17:40.560Z,15.02
2022-08-26T00:20:10.587Z,13.60
2022-08-26T00:22:41.763Z,14.35
2022-08-26T00:25:10.363Z,16.17
2022-08-26T00:27:38.184Z,14.13
2022-08-26T00:30:10.952Z,18.63
2022-08-26T00:32:41.295Z,20.73
2022-08-26T00:35:13.110Z,18.35
2022-08-26T00:37:42.549Z,16.90
2022-08-26T00:40:17.276Z,15.20
2022-08-26T00:42:46.039Z,16.00
2022-08-26T00:45:14.738Z,17.77
2022-08-26T00:47:49.980Z,18.63
2022-08-26T00:50:25.104Z,19.88
2022-08-26T00:52:55.547Z,11.20
2022-08-26T00:55:37.911Z,15.13
2022-08-26T00:58:08.316Z,16.30
2022-08-26T01:00:35.697Z,14.70
2022-08-26T01:03:06.838Z,25.90
2022-08-26T01:05:42.035Z,16.27
2022-08-26T01:08:09.568Z,23.15
2022-08-26T01:10:37.288Z,17.45
2022-08-26T01:13:12.689Z,13.82
2022-08-26T01:15:54.885Z,18.55
2022-08-26T01:18:23.667Z,13.73
2022-08-26T01:21:32.447Z,13.70
2022-08-26T01:24:00.185Z,17.88
2022-08-26T01:26:41.403Z,16.20
2022-08-26T01:29:18.840Z,15.75
2022-08-26T01:31:56.661Z,18.55
2022-08-26T01:34:32.654Z,20.50
2022-08-26T01:37:33.557Z,14.48
2022-08-26T01:40:01.099Z,14.55
2022-08-26T01:42:29.235Z,17.60
2022-08-26T01:45:03.758Z,25.33
2022-08-26T01:47:34.714Z,16.30
2022-08-26T01:50:09.751Z,17.92
2022-08-26T01:52:41.843Z,18.10
2022-08-26T01:55:11.948Z,18.75
2022-08-26T01:57:40.406Z,15.48
2022-08-26T02:00:16.281Z,14.35
2022-08-26T02:02:48.129Z,19.42
2022-08-26T02:05:20.523Z,19.38
2022-08-26T02:07:50.749Z,12.07
2022-08-26T02:10:17.840Z,15.68
2022-08-26T02:12:48.416Z,17.35
2022-08-26T02:15:15.531Z,15.25
2022-08-26T02:17:47.287Z,17.23
2022-08-26T02:20:20.109Z,16.58
2022-08-26T02:22:51.158Z,15.20
2022-08-26T02:25:46.007Z,13.57
2022-08-26T02:28:14.336Z,22.95
2022-08-26T02:30:41.962Z,14.68
2022-08-26T02:33:12.343Z,13.27
2022-08-26T02:35:40.516Z,16.55
2022-08-26T02:38:11.093Z,15.88
2022-08-26T02:40:43.724Z,16.55
2022-08-26T02:43:14.382Z,19.42
2022-08-26T02:45:42.313Z,14.85
2022-08-26T02:48:16.819Z,16.73
2022-08-26T02:50:46.178Z,15.82
2022-08-26T02:53:16.271Z,20.70
2022-08-26T02:55:49.436Z,14.13
2022-08-26T02:58:17.524Z,21.73
2022-08-26T03:00:52.758Z,16.50
2022-08-26T03:03:22.525Z,12.88
2022-08-26T03:05:51.787Z,19.70
2022-08-26T03:08:20.262Z,12.93
2022-08-26T03:10:48.374Z,18.95
2022-08-26T03:13:16.786Z,16.23
2022-08-26T03:15:44.673Z,13.25
2022-08-26T03:18:15.113Z,13.38
2022-08-26T03:20:42.273Z,18.33
2022-08-26T03:23:11.203Z,16.63
2022-08-26T03:25:41.457Z,17.70
2022-08-26T03:28:09.655Z,16.13
2022-08-26T03:30:45.405Z,14.82
2022-08-26T03:33:16.497Z,16.02
2022-08-26T03:35:47.854Z,18.60
2022-08-26T03:38:23.178Z,13.63
2022-08-26T03:40:50.482Z,20.10
2022-08-26T03:43:22.407Z,15.77
2022-08-26T03:45:50.081Z,14.75
2022-08-26T03:48:18.628Z,14.48
2022-08-26T03:50:45.912Z,13.20
2022-08-26T03:53:16.028Z,14.48
2022-08-26T03:55:48.153Z,14.57
2022-08-26T03:58:21.038Z,13.25
2022-08-26T04:00:48.477Z,15.50
2022-08-26T04:03:41.580Z,18.17
2022-08-26T04:06:09.160Z,24.05
2022-08-26T04:08:37.702Z,43.70
2022-08-26T04:11:06.447Z,41.38
2022-08-26T04:13:33.866Z,35.45
2022-08-26T04:16:04.501Z,45.53
2022-08-26T04:18:37.036Z,67.80
2022-08-26T04:21:08.696Z,42.10
2022-08-26T04:23:47.526Z,22.85
2022-08-26T04:26:16.894Z,18.35
2022-08-26T04:28:48.946Z,24.80
2022-08-26T04:31:18.834Z,14.52
2022-08-26T04:33:50.850Z,14.80
2022-08-26T04:36:19.913Z,15.82
2022-08-26T04:38:53.166Z,12.63
2022-08-26T04:41:21.855Z,12.68
2022-08-26T04:43:51.986Z,14.95
2022-08-26T04:46:24.471Z,12.25
2022-08-26T04:48:53.725Z,13.90
2022-08-26T04:51:27.374Z,14.73
2022-08-26T04:53:57.479Z,14.30
2022-08-26T04:56:34.044Z,13.43
2022-08-26T04:59:03.235Z,15.70
2022-08-26T05:01:39.556Z,22.77
2022-08-26T05:04:08.203Z,14.10
2022-08-26T05:06:37.099Z,13.98
2022-08-26T05:09:05.067Z,16.92
2022-08-26T05:11:34.126Z,23.35
2022-08-26T05:14:02.510Z,13.65
2022-08-26T05:16:30.477Z,14.63
2022-08-26T05:18:57.743Z,17.52
2022-08-26T05:21:28.493Z,12.98
2022-08-26T05:23:56.413Z,17.40
2022-08-26T05:26:27.390Z,17.23
2022-08-26T05:28:56.251Z,15.95
2022-08-26T05:31:31.591Z,17.95
2022-08-26T05:34:03.972Z,15.90
2022-08-26T05:36:37.865Z,17.88
2022-08-26T05:39:06.725Z,17.25
2022-08-26T05:41:38.895Z,16.35
2022-08-26T05:44:12.788Z,15.55
2022-08-26T05:46:42.255Z,17.02
2022-08-26T05:49:14.927Z,16.40
2022-08-26T05:51:46.408Z,14.55
2022-08-26T05:54:22.324Z,21.48
2022-08-26T05:56:52.948Z,22.23
2022-08-26T05:59:24.435Z,21.77
2022-08-26T06:01:55.277Z,22.92
2022-08-26T06:04:27.557Z,18.80
2022-08-26T06:06:56.466Z,26.52
2022-08-26T06:09:24.198Z,24.00
2022-08-26T06:11:51.550Z,32.75
2022-08-26T06:14:18.916Z,25.73
2022-08-26T06:16:46.251Z,25.83
2022-08-26T06:19:15.771Z,25.83
2022-08-26T06:21:51.280Z,25.23
2022-08-26T06:24:43.689Z,23.65
2022-08-26T06:27:15.284Z,28.80
2022-08-26T06:29:42.625Z,26.40
2022-08-26T06:32:09.796Z,30.85
2022-08-26T06:34:37.137Z,29.30
2022-08-26T06:37:06.457Z,28.05
2022-08-26T06:39:34.372Z,27.15
2022-08-26T06:42:08.477Z,32.83
2022-08-26T06:44:42.069Z,42.50
2022-08-26T06:47:12.036Z,25.60
2022-08-26T06:49:42.583Z,39.80
2022-08-26T06:52:11.768Z,49.65
2022-08-26T06:54:43.123Z,36.20
2022-08-26T06:57:14.358Z,29.25
2022-08-26T06:59:46.630Z,32.50
2022-08-26T07:02:14.762Z,31.90
2022-08-26T07:04:42.179Z,33.63
2022-08-26T07:07:13.128Z,31.08
2022-08-26T07:09:40.210Z,39.63
2022-08-26T07:12:07.776Z,33.55
2022-08-26T07:14:35.202Z,29.42
2022-08-26T07:17:02.929Z,26.25
2022-08-26T07:19:36.473Z,35.97
2022-08-26T07:22:06.343Z,39.03
2022-08-26T07:24:41.134Z,42.42
2022-08-26T07:27:14.751Z,33.17
2022-08-26T07:29:43.617Z,38.78
2022-08-26T07:32:16.123Z,32.13
2022-08-26T07:34:46.795Z,37.63
2022-08-26T07:37:14.456Z,34.95
2022-08-26T07:39:43.411Z,36.75
2022-08-26T07:42:14.392Z,38.00
2022-08-26T07:44:43.578Z,37.00
2022-08-26T07:47:24.913Z,37.75
2022-08-26T07:52:28.423Z,39.03
2022-08-26T07:54:58.252Z,35.38
2022-08-26T07:57:27.053Z,43.05
2022-08-26T07:59:55.530Z,37.08
2022-08-26T08:02:24.686Z,40.38
2022-08-26T08:04:52.500Z,43.65
2022-08-26T08:07:20.735Z,50.97
2022-08-26T08:09:52.997Z,26.70
2022-08-26T08:12:22.815Z,48.13
2022-08-26T08:14:53.181Z,32.85
2022-08-26T08:17:23.714Z,31.55
2022-08-26T08:19:51.218Z,24.17
2022-08-26T08:22:23.694Z,41.65
2022-08-26T08:24:52.995Z,39.45
2022-08-26T08:27:23.838Z,31.98
2022-08-26T08:29:54.941Z,31.42
2022-08-26T08:32:23.730Z,28.55
2022-08-26T08:34:51.131Z,27.10
2022-08-26T08:37:18.894Z,28.85
2022-08-26T08:39:46.203Z,28.50
2022-08-26T08:42:24.948Z,39.28
2022-08-26T08:44:55.686Z,25.67
2022-08-26T08:47:29.849Z,28.20
2022-08-26T08:50:04.097Z,27.02
2022-08-26T08:52:36.237Z,28.58
2022-08-26T08:55:11.099Z,19.10
2022-08-26T08:58:05.497Z,23.25
2022-08-26T09:01:02.559Z,30.25
2022-08-26T09:03:40.179Z,27.00
2022-08-26T09:06:17.440Z,24.50
2022-08-26T09:08:50.040Z,24.88
2022-08-26T09:11:21.176Z,30.90
2022-08-26T09:13:52.805Z,24.08
2022-08-26T09:16:57.326Z,20.73
2022-08-26T09:20:02.527Z,22.30
2022-08-26T09:22:34.547Z,17.67
2022-08-26T09:25:02.592Z,19.48
2022-08-26T09:27:43.055Z,20.17
2022-08-26T09:30:29.761Z,13.25
2022-08-26T09:33:10.155Z,18.63
2022-08-26T09:35:47.233Z,21.92
2022-08-26T09:38:34.116Z,16.45
2022-08-26T09:41:24.932Z,21.48
2022-08-26T09:44:04.467Z,18.80
2022-08-26T09:46:33.105Z,18.55
2022-08-26T09:49:39.747Z,16.58
2022-08-26T09:52:24.672Z,15.73
2022-08-26T09:55:12.324Z,23.75
2022-08-26T09:57:52.685Z,20.10
2022-08-26T10:00:39.927Z,19.55
2022-08-26T10:03:12.456Z,14.43
2022-08-26T10:06:00.110Z,23.95
2022-08-26T10:08:42.322Z,17.67
2022-08-26T10:11:32.684Z,17.90
2022-08-26T10:14:25.100Z,17.02
2022-08-26T10:17:40.611Z,20.33
2022-08-26T10:20:34.564Z,16.35
2022-08-26T10:23:07.372Z,21.95
2022-08-26T10:26:04.827Z,17.00
2022-08-26T10:29:06.323Z,21.25
2022-08-26T10:32:03.423Z,16.65
2022-08-26T10:34:33.444Z,16.67
2022-08-26T10:37:15.041Z,16.00
2022-08-26T10:40:26.400Z,19.00
2022-08-26T10:43:10.961Z,15.00
2022-08-26T10:45:50.398Z,11.48
2022-08-26T10:48:37.890Z,12.98
2022-08-26T10:51:07.000Z,11.68
2022-08-26T10:53:47.498Z,19.08
2022-08-26T10:56:46.534Z,16.42
2022-08-26T10:59:34.158Z,20.00
2022-08-26T11:02:37.154Z,16.58
2022-08-26T11:05:22.742Z,13.35
2022-08-26T11:07:54.837Z,10.48
2022-08-26T11:10:22.609Z,21.50
2022-08-26T11:13:05.165Z,16.17
2022-08-26T11:15:32.150Z,23.10
2022-08-26T11:18:05.052Z,17.52
2022-08-26T11:20:52.391Z,17.30
2022-08-26T11:23:50.187Z,17.40
2022-08-26T11:26:36.044Z,23.20
2022-08-26T11:29:13.125Z,15.48
2022-08-26T11:31:40.707Z,14.68
2022-08-26T11:34:14.254Z,15.75
2022-08-26T11:36:46.359Z,13.57
2022-08-26T11:39:36.863Z,11.82
2022-08-26T11:42:32.548Z,18.85
2022-08-26T11:45:32.809Z,14.88
2022-08-26T11:48:19.864Z,10.43
2022-08-26T11:51:11.550Z,18.63
2022-08-26T11:53:47.407Z,17.40
2022-08-26T11:56:31.806Z,14.85
2022-08-26T11:59:11.525Z,12.43
2022-08-26T12:01:45.196Z,15.27
2022-08-26T12:04:37.789Z,17.35
2022-08-26T12:07:08.643Z,14.55
2022-08-26T12:10:02.190Z,20.20
2022-08-26T12:12:38.740Z,17.38
2022-08-26T12:15:22.750Z,15.27
2022-08-26T12:17:54.399Z,16.00
2022-08-26T12:20:31.376Z,16.65
2022-08-26T12:23:00.823Z,12.80
2022-08-26T12:25:28.314Z,16.98
2022-08-26T12:28:05.660Z,12.05
2022-08-26T12:30:36.271Z,8.60
2022-08-26T12:33:22.558Z,16.90
2022-08-26T12:35:56.364Z,14.85
2022-08-26T12:38:27.190Z,12.98
2022-08-26T12:40:54.900Z,16.10
2022-08-26T12:43:45.997Z,11.57
2022-08-26T12:46:27.244Z,11.55
2022-08-26T12:49:01.282Z,14.82
2022-08-26T12:51:34.886Z,12.73
2022-08-26T12:54:06.735Z,15.98
2022-08-26T12:56:41.264Z,13.15
2022-08-26T12:59:25.482Z,9.02
2022-08-26T13:01:54.306Z,22.55
2022-08-26T13:04:35.287Z,15.85
2022-08-26T13:07:26.316Z,18.45
2022-08-26T13:09:57.940Z,13.75
2022-08-26T13:12:37.397Z,14.60
2022-08-26T13:15:07.046Z,10.80
2022-08-26T13:17:36.012Z,14.63
2022-08-26T13:20:04.650Z,13.77
2022-08-26T13:22:35.531Z,21.50
2022-08-26T13:25:03.078Z,14.95
2022-08-26T13:27:30.667Z,20.27
2022-08-26T13:29:59.171Z,18.88
2022-08-26T13:32:29.485Z,15.48
2022-08-26T13:34:57.616Z,22.40
2022-08-26T13:37:34.663Z,14.05
2022-08-26T13:40:06.085Z,10.55
2022-08-26T13:42:35.959Z,12.48
2022-08-26T13:45:07.115Z,9.27
2022-08-26T13:47:34.746Z,12.63
2022-08-26T13:50:02.029Z,9.45
2022-08-26T13:52:32.499Z,16.13
2022-08-26T13:55:00.849Z,13.35
2022-08-26T13:57:30.325Z,15.40
2022-08-26T13:59:59.473Z,8.27
2022-08-26T14:02:28.232Z,22.42
2022-08-26T14:04:56.019Z,13.82
2022-08-26T14:07:23.659Z,17.90
2022-08-26T14:09:51.108Z,20.45
2022-08-26T14:12:18.674Z,17.92
2022-08-26T14:14:46.265Z,39.22
2022-08-26T14:17:21.528Z,30.20
2022-08-26T14:19:50.652Z,37.58
2022-08-26T14:22:21.802Z,18.08
2022-08-26T14:24:52.460Z,14.68
2022-08-26T14:27:19.750Z,10.38
2022-08-26T14:29:47.105Z,11.23
2022-08-26T14:32:26.081Z,11.57
2022-08-26T14:34:55.308Z,10.75
2022-08-26T14:37:23.106Z,13.52
2022-08-26T14:39:50.967Z,25.13
2022-08-26T14:42:26.493Z,15.52
2022-08-26T14:45:03.899Z,11.15
2022-08-26T14:47:31.305Z,23.52
2022-08-26T14:49:59.650Z,14.00
2022-08-26T14:52:27.775Z,10.07
2022-08-26T14:54:55.456Z,18.52
2022-08-26T14:57:29.169Z,15.90
2022-08-26T14:59:59.998Z,13.27
2022-08-26T15:02:33.021Z,19.17
2022-08-26T15:05:08.706Z,19.42
2022-08-26T15:07:39.912Z,14.85
2022-08-26T15:10:11.838Z,42.58
2022-08-26T15:12:39.282Z,32.38
2022-08-26T15:15:13.009Z,29.85
2022-08-26T15:17:40.794Z,23.95
2022-08-26T15:20:09.621Z,15.88
2022-08-26T15:22:42.405Z,18.52
2022-08-26T15:25:10.876Z,13.55
2022-08-26T15:27:38.735Z,14.55
2022-08-26T15:30:11.009Z,12.68
2022-08-26T15:32:38.479Z,16.88
2022-08-26T15:35:09.062Z,11.50
2022-08-26T15:37:39.993Z,18.40
2022-08-26T15:40:09.759Z,19.88
2022-08-26T15:42:40.081Z,17.27
2022-08-26T15:45:07.902Z,16.45
2022-08-26T15:47:48.374Z,15.57
2022-08-26T15:50:25.303Z,12.02
2022-08-26T15:52:52.469Z,12.80
2022-08-26T15:55:19.744Z,10.85
2022-08-26T15:57:50.819Z,23.90
2022-08-26T16:00:20.871Z,13.02
2022-08-26T16:02:48.987Z,14.00
2022-08-26T16:05:19.024Z,26.00
2022-08-26T16:07:46.283Z,19.23
2022-08-26T16:10:13.587Z,19.83
2022-08-26T16:12:40.691Z,23.52
2022-08-26T16:15:09.140Z,48.53
2022-08-26T16:17:36.352Z,87.57
2022-08-26T16:20:08.205Z,28.17
2022-08-26T16:22:38.821Z,29.70
2022-08-26T16:25:07.515Z,29.90
2022-08-26T16:27:34.748Z,23.90
2022-08-26T16:30:06.869Z,21.42
2022-08-26T16:32:33.953Z,17.70
2022-08-26T16:35:01.281Z,14.25
2022-08-26T16:37:28.418Z,9.57
2022-08-26T16:39:55.618Z,12.85
2022-08-26T16:42:23.289Z,11.23
2022-08-26T16:44:51.759Z,13.02
2022-08-26T16:47:23.143Z,12.40
2022-08-26T16:49:50.817Z,12.82
2022-08-26T16:52:18.345Z,15.75
2022-08-26T16:54:45.842Z,12.18
2022-08-26T16:57:13.722Z,16.65
2022-08-26T16:59:41.580Z,19.83
2022-08-26T17:02:10.651Z,9.90
2022-08-26T17:04:41.339Z,24.48
2022-08-26T17:07:13.425Z,12.38
2022-08-26T17:09:41.457Z,24.30
2022-08-26T17:12:08.769Z,11.73
2022-08-26T17:14:36.034Z,21.60
2022-08-26T17:17:04.152Z,17.67
2022-08-26T17:19:34.538Z,9.85
2022-08-26T17:22:11.785Z,15.75
2022-08-26T17:24:43.083Z,13.40
2022-08-26T17:27:10.444Z,14.85
2022-08-26T17:29:37.519Z,19.73
2022-08-26T17:32:04.880Z,12.48
2022-08-26T17:34:32.546Z,14.07
2022-08-26T17:37:02.985Z,16.50
2022-08-26T17:39:30.191Z,18.77
2022-08-26T17:41:57.500Z,18.85
2022-08-26T17:44:24.574Z,16.98
2022-08-26T17:46:54.908Z,13.50
2022-08-26T17:49:25.572Z,13.35
2022-08-26T17:51:59.113Z,27.95
2022-08-26T17:54:26.835Z,17.35
2022-08-26T17:57:00.386Z,19.02
2022-08-26T17:59:31.401Z,6.53
2022-08-26T18:01:59.218Z,13.65
2022-08-26T18:04:27.134Z,11.43
2022-08-26T18:06:54.284Z,18.42
2022-08-26T18:09:24.692Z,15.15
2022-08-26T18:11:52.207Z,11.90
2022-08-26T18:14:22.914Z,20.38
2022-08-26T18:16:51.060Z,14.50
2022-08-26T18:19:18.508Z,12.65
2022-08-26T18:21:45.589Z,15.93
2022-08-26T18:24:14.264Z,14.85
2022-08-26T18:26:48.122Z,21.98
2022-08-26T18:29:18.946Z,22.65
2022-08-26T18:31:48.529Z,19.42
2022-08-26T18:34:16.936Z,14.75
2022-08-26T18:36:44.315Z,17.40
2022-08-26T18:39:14.039Z,19.63
2022-08-26T18:41:48.417Z,15.55
2022-08-26T18:44:18.943Z,11.63
2022-08-26T18:46:50.584Z,9.07
2022-08-26T18:49:20.702Z,20.73
2022-08-26T18:51:51.227Z,14.10
2022-08-26T18:56:51.820Z,17.10
2022-08-26T18:59:19.292Z,17.55
2022-08-26T19:01:54.075Z,17.80
2022-08-26T19:04:22.424Z,17.33
2022-08-26T19:06:52.761Z,21.17
2022-08-26T19:09:20.951Z,18.42
2022-08-26T19:11:52.032Z,16.55
2022-08-26T19:14:19.601Z,23.08
2022-08-26T19:16:49.828Z,11.25
2022-08-26T19:19:17.574Z,14.15
2022-08-26T19:21:46.072Z,20.50
2022-08-26T19:24:17.837Z,16.15
2022-08-26T19:26:57.564Z,16.23
2022-08-26T19:29:30.645Z,18.35
2022-08-26T19:31:58.980Z,20.00
2022-08-26T19:34:26.523Z,17.75
2022-08-26T19:36:54.963Z,16.25
2022-08-26T19:39:22.928Z,17.60
2022-08-26T19:41:54.106Z,14.60
2022-08-26T19:44:42.291Z,16.80
2022-08-26T19:47:13.694Z,20.73
2022-08-26T19:49:46.083Z,26.52
2022-08-26T19:52:14.244Z,18.50
2022-08-26T19:54:41.783Z,28.25
2022-08-26T19:57:10.353Z,18.15
2022-08-26T19:59:39.280Z,12.48
2022-08-26T20:02:10.910Z,17.27
2022-08-26T20:04:39.290Z,15.25
2022-08-26T20:07:07.178Z,20.60
2022-08-26T20:09:35.703Z,19.50
2022-08-26T20:12:05.847Z,13.27
2022-08-26T20:14:35.145Z,19.35
2022-08-26T20:17:04.179Z,12.75
2022-08-26T20:19:50.794Z,16.08
2022-08-26T20:22:19.747Z,20.98
2022-08-26T20:24:47.638Z,20.17
2022-08-26T20:27:27.670Z,9.55
2022-08-26T20:30:07.800Z,19.95
2022-08-26T20:32:35.739Z,15.10
2022-08-26T20:35:04.711Z,19.75
2022-08-26T20:37:42.009Z,18.77
2022-08-26T20:40:12.956Z,16.52
2022-08-26T20:42:43.165Z,13.40
2022-08-26T20:45:13.729Z,29.63
2022-08-26T20:47:44.405Z,18.65
2022-08-26T20:50:14.931Z,27.48
2022-08-26T20:52:42.574Z,18.98
2022-08-26T20:55:11.978Z,23.13
2022-08-26T20:57:39.162Z,17.40
2022-08-26T21:00:07.681Z,20.30
2022-08-26T21:02:37.681Z,19.55
2022-08-26T21:05:05.995Z,22.02
2022-08-26T21:07:33.476Z,16.25
2022-08-26T21:10:00.802Z,23.60
2022-08-26T21:12:28.087Z,18.67
2022-08-26T21:14:58.993Z,19.13
2022-08-26T21:17:29.904Z,16.55
2022-08-26T21:19:57.509Z,28.90
2022-08-26T21:22:28.827Z,17.25
2022-08-26T21:24:55.950Z,18.17
2022-08-26T21:27:23.182Z,14.27
2022-08-26T21:29:54.032Z,19.20
2022-08-26T21:32:21.243Z,13.10
2022-08-26T21:34:48.319Z,23.05
2022-08-26T21:37:16.933Z,25.00
2022-08-26T21:39:44.474Z,13.75
2022-08-26T21:42:11.754Z,13.55
2022-08-26T21:44:43.484Z,24.90
2022-08-26T21:47:14.294Z,18.58
2022-08-26T21:49:44.730Z,25.13
2022-08-26T21:52:12.681Z,13.35
2022-08-26T21:54:40.305Z,29.77
2022-08-26T21:57:17.194Z,13.73
2022-08-26T21:59:44.346Z,19.23
2022-08-26T22:02:11.639Z,18.08
2022-08-26T22:04:38.878Z,17.88
2022-08-26T22:07:06.102Z,15.80
2022-08-26T22:09:33.627Z,19.67
2022-08-26T22:12:01.371Z,16.05
2022-08-26T22:14:31.727Z,17.02
2022-08-26T22:17:02.807Z,13.98
2022-08-26T22:19:31.770Z,13.60
2022-08-26T22:22:02.404Z,10.88
2022-08-26T22:24:29.888Z,12.23
2022-08-26T22:27:00.491Z,12.13
2022-08-26T22:29:27.717Z,9.95
2022-08-26T22:31:55.057Z,11.63
2022-08-26T22:34:23.416Z,9.90
2022-08-26T22:36:51.044Z,7.75
2022-08-26T22:39:23.581Z,7.40
2022-08-26T22:41:52.632Z,8.68
2022-08-26T22:44:22.265Z,9.82
2022-08-26T22:46:54.236Z,12.20
2022-08-26T22:49:22.250Z,11.27
2022-08-26T22:51:52.654Z,6.63
2022-08-26T22:54:19.933Z,9.40
2022-08-26T22:56:47.138Z,12.50
2022-08-26T22:59:16.058Z,7.50
2022-08-26T23:01:44.598Z,7.63
2022-08-26T23:04:12.127Z,7.22
2022-08-26T23:06:43.141Z,11.80
2022-08-26T23:09:14.097Z,9.38
2022-08-26T23:11:43.270Z,12.35
2022-08-26T23:14:11.215Z,8.65
2022-08-26T23:16:41.689Z,8.75
2022-08-26T23:19:14.430Z,11.45
2022-08-26T23:21:45.115Z,11.32
2022-08-26T23:24:12.724Z,11.75
2022-08-26T23:26:42.088Z,8.15
2022-08-26T23:29:19.190Z,14.68
2022-08-26T23:31:46.453Z,13.30
2022-08-26T23:34:32.520Z,14.00
2022-08-26T23:37:00.971Z,9.50
2022-08-26T23:39:29.083Z,11.55
2022-08-26T23:41:56.958Z,8.85
2022-08-26T23:44:26.592Z,10.30
2022-08-26T23:46:54.965Z,9.85
2022-08-26T23:49:22.214Z,11.55
2022-08-26T23:52:08.109Z,9.15
2022-08-26T23:57:02.237Z,12.15
2022-08-26T23:59:29.540Z,11.57
